createdAt,value
2017-11-25T00:01:49.601Z,11.30
2017-11-25T00:04:17.090Z,11.30
2017-11-25T00:06:44.582Z,11.30
2017-11-25T00:09:12.071Z,11.20
2017-11-25T00:11:39.579Z,11.20
2017-11-25T00:14:07.824Z,11.30
2017-11-25T00:16:36.213Z,11.20
2017-11-25T00:19:10.048Z,11.20
2017-11-25T00:21:37.819Z,11.10
2017-11-25T00:24:06.344Z,11.10
2017-11-25T00:26:35.147Z,11.10
2017-11-25T00:29:02.960Z,11.10
2017-11-25T00:31:31.322Z,11.10
2017-11-25T00:33:59.235Z,11.10
2017-11-25T00:36:26.942Z,11.10
2017-11-25T00:38:55.530Z,11.10
2017-11-25T00:41:24.224Z,11.10
2017-11-25T00:43:51.998Z,11.10
2017-11-25T00:46:19.702Z,11.10
2017-11-25T00:48:47.613Z,11.10
2017-11-25T00:51:16.119Z,11.10
2017-11-25T00:53:44.120Z,11.00
2017-11-25T00:56:11.615Z,11.20
2017-11-25T00:58:39.932Z,11.10
2017-11-25T01:01:07.414Z,11.00
2017-11-25T01:03:34.907Z,11.00
2017-11-25T01:06:02.393Z,11.00
2017-11-25T01:08:29.884Z,11.00
2017-11-25T01:10:57.375Z,11.00
2017-11-25T01:13:24.883Z,11.00
2017-11-25T01:15:52.378Z,11.00
2017-11-25T01:18:19.867Z,11.00
2017-11-25T01:20:48.126Z,10.90
2017-11-25T01:23:15.620Z,10.90
2017-11-25T01:25:43.114Z,11.00
2017-11-25T01:28:10.611Z,11.00
2017-11-25T01:30:38.116Z,10.90
2017-11-25T01:33:05.606Z,10.80
2017-11-25T01:35:33.139Z,10.90
2017-11-25T01:38:00.626Z,11.00
2017-11-25T01:40:28.118Z,10.90
2017-11-25T01:42:56.370Z,11.00
2017-11-25T01:45:23.864Z,10.90
2017-11-25T01:47:52.151Z,10.90
2017-11-25T01:50:19.641Z,10.80
2017-11-25T01:52:47.134Z,10.80
2017-11-25T01:55:14.626Z,10.90
2017-11-25T01:57:42.882Z,10.90
2017-11-25T02:00:11.145Z,11.00
2017-11-25T02:02:38.634Z,10.90
2017-11-25T02:05:06.897Z,11.00
2017-11-25T02:07:35.158Z,11.00
2017-11-25T02:10:02.643Z,10.90
2017-11-25T02:12:30.919Z,11.00
2017-11-25T02:14:59.184Z,11.00
2017-11-25T02:17:26.684Z,11.00
2017-11-25T02:19:54.173Z,11.10
2017-11-25T02:22:21.662Z,10.90
2017-11-25T02:24:49.148Z,10.90
2017-11-25T02:27:16.634Z,10.90
2017-11-25T02:29:44.123Z,10.80
2017-11-25T02:32:11.719Z,10.80
2017-11-25T02:34:39.241Z,10.70
2017-11-25T02:37:06.714Z,10.70
2017-11-25T02:39:34.203Z,10.70
2017-11-25T02:42:01.691Z,10.80
2017-11-25T02:44:29.188Z,10.80
2017-11-25T02:46:56.681Z,10.80
2017-11-25T02:49:24.168Z,10.90
2017-11-25T02:51:51.661Z,10.80
2017-11-25T02:54:19.155Z,10.90
2017-11-25T02:56:46.641Z,10.90
2017-11-25T02:59:14.142Z,10.90
2017-11-25T03:01:41.625Z,10.90
2017-11-25T03:04:09.878Z,11.00
2017-11-25T03:06:37.371Z,10.90
2017-11-25T03:09:04.861Z,10.90
2017-11-25T03:11:32.361Z,10.90
2017-11-25T03:13:59.846Z,10.90
2017-11-25T03:16:27.334Z,10.90
2017-11-25T03:18:54.821Z,10.80
2017-11-25T03:21:22.311Z,10.80
2017-11-25T03:23:50.568Z,10.70
2017-11-25T03:26:18.055Z,10.70
2017-11-25T03:28:45.546Z,10.80
2017-11-25T03:31:13.032Z,10.80
2017-11-25T03:33:40.985Z,10.80
2017-11-25T03:36:09.287Z,10.80
2017-11-25T03:38:36.780Z,10.80
2017-11-25T03:41:04.262Z,10.90
2017-11-25T03:43:31.755Z,10.90
2017-11-25T03:45:59.243Z,10.80
2017-11-25T03:48:27.501Z,10.90
2017-11-25T03:50:54.987Z,10.80
2017-11-25T03:53:23.246Z,10.80
2017-11-25T03:55:51.498Z,10.90
2017-11-25T03:58:18.982Z,10.80
2017-11-25T04:00:46.464Z,10.80
2017-11-25T04:03:14.719Z,10.90
2017-11-25T04:05:42.973Z,10.90
2017-11-25T04:08:10.464Z,10.90
2017-11-25T04:10:38.723Z,11.00
2017-11-25T04:13:06.215Z,10.90
2017-11-25T04:15:33.715Z,11.00
2017-11-25T04:18:01.209Z,11.00
2017-11-25T04:20:29.464Z,11.00
2017-11-25T04:22:56.954Z,11.00
2017-11-25T04:25:25.202Z,11.00
2017-11-25T04:27:53.473Z,10.90
2017-11-25T04:30:20.962Z,10.90
2017-11-25T04:32:49.214Z,10.90
2017-11-25T04:35:16.706Z,10.90
2017-11-25T04:37:44.962Z,11.00
2017-11-25T04:40:12.453Z,10.90
2017-11-25T04:42:39.946Z,10.90
2017-11-25T04:45:07.434Z,10.90
2017-11-25T04:47:34.932Z,10.90
2017-11-25T04:50:02.423Z,11.00
2017-11-25T04:52:29.906Z,11.00
2017-11-25T04:54:57.398Z,11.00
2017-11-25T04:57:25.690Z,10.90
2017-11-25T04:59:53.179Z,10.90
2017-11-25T05:02:20.669Z,11.00
2017-11-25T05:04:48.161Z,11.00
2017-11-25T05:07:15.654Z,11.00
2017-11-25T05:09:43.146Z,10.90
2017-11-25T05:12:11.403Z,10.90
2017-11-25T05:14:38.895Z,10.90
2017-11-25T05:17:07.160Z,10.90
2017-11-25T05:19:40.225Z,11.10
2017-11-25T05:22:08.710Z,11.00
2017-11-25T05:24:36.723Z,11.00
2017-11-25T05:27:05.398Z,10.90
2017-11-25T05:29:32.989Z,10.90
2017-11-25T05:32:00.827Z,10.80
2017-11-25T05:34:28.503Z,10.90
2017-11-25T05:36:56.758Z,11.40
2017-11-25T05:39:24.335Z,11.40
2017-11-25T05:41:52.594Z,11.20
2017-11-25T05:44:20.086Z,11.10
2017-11-25T05:46:48.348Z,11.10
2017-11-25T05:49:16.603Z,11.40
2017-11-25T05:51:44.394Z,11.30
2017-11-25T05:54:12.651Z,11.40
2017-11-25T05:56:40.138Z,11.30
2017-11-25T05:59:08.579Z,11.30
2017-11-25T06:01:36.867Z,11.20
2017-11-25T06:04:04.712Z,11.20
2017-11-25T06:06:32.556Z,11.30
2017-11-25T06:09:00.324Z,11.30
2017-11-25T06:11:28.192Z,11.40
2017-11-25T06:13:56.060Z,11.30
2017-11-25T06:16:23.775Z,11.50
2017-11-25T06:18:51.491Z,11.60
2017-11-25T06:21:19.029Z,11.50
2017-11-25T06:23:46.527Z,11.80
2017-11-25T06:26:14.114Z,12.40
2017-11-25T06:28:42.077Z,11.90
2017-11-25T06:31:09.562Z,11.90
2017-11-25T06:33:37.822Z,11.50
2017-11-25T06:36:05.305Z,11.50
2017-11-25T06:38:33.553Z,11.40
2017-11-25T06:41:01.039Z,11.40
2017-11-25T06:43:29.293Z,11.50
2017-11-25T06:45:56.787Z,11.50
2017-11-25T06:48:24.276Z,11.60
2017-11-25T06:50:51.766Z,11.50
2017-11-25T06:53:19.255Z,11.30
2017-11-25T06:55:47.506Z,11.30
2017-11-25T06:58:14.988Z,11.30
2017-11-25T07:00:43.238Z,11.30
2017-11-25T07:03:10.727Z,11.20
2017-11-25T07:05:38.974Z,11.40
2017-11-25T07:08:06.483Z,11.40
2017-11-25T07:10:33.963Z,11.50
2017-11-25T07:13:01.455Z,11.50
2017-11-25T07:15:29.712Z,11.30
2017-11-25T07:17:57.197Z,11.30
2017-11-25T07:20:24.687Z,11.30
2017-11-25T07:22:52.174Z,11.30
2017-11-25T07:25:19.661Z,11.30
2017-11-25T07:27:54.533Z,11.30
2017-11-25T07:30:29.894Z,11.40
2017-11-25T07:32:58.106Z,11.20
2017-11-25T07:35:25.786Z,11.30
2017-11-25T07:37:53.399Z,11.30
2017-11-25T07:40:20.933Z,11.30
2017-11-25T07:42:49.509Z,11.20
2017-11-25T07:45:18.332Z,11.20
2017-11-25T07:47:46.198Z,11.20
2017-11-25T07:50:14.037Z,11.20
2017-11-25T07:52:42.571Z,11.30
2017-11-25T07:55:10.286Z,11.30
2017-11-25T07:57:38.664Z,11.20
2017-11-25T08:00:07.102Z,11.20
2017-11-25T08:02:34.870Z,11.20
2017-11-25T08:05:02.638Z,11.20
2017-11-25T08:07:30.399Z,11.20
2017-11-25T08:09:58.183Z,11.30
2017-11-25T08:12:25.851Z,11.30
2017-11-25T08:14:53.338Z,11.20
2017-11-25T08:17:20.846Z,11.30
2017-11-25T08:19:48.338Z,11.30
2017-11-25T08:22:16.594Z,11.30
2017-11-25T08:24:44.077Z,11.30
2017-11-25T08:27:12.345Z,11.30
2017-11-25T08:29:40.603Z,11.30
2017-11-25T08:32:08.099Z,11.20
2017-11-25T08:34:36.351Z,11.20
2017-11-25T08:37:03.839Z,11.20
2017-11-25T08:39:32.093Z,11.30
2017-11-25T08:42:00.358Z,11.20
2017-11-25T08:44:27.855Z,11.20
2017-11-25T08:46:55.357Z,11.30
2017-11-25T08:49:22.846Z,11.40
2017-11-25T08:51:51.102Z,11.30
2017-11-25T08:54:18.589Z,11.30
2017-11-25T08:56:46.841Z,11.30
2017-11-25T08:59:14.332Z,11.30
2017-11-25T09:01:42.582Z,11.30
2017-11-25T09:04:10.075Z,11.30
2017-11-25T09:06:38.339Z,11.40
2017-11-25T09:09:06.591Z,11.30
2017-11-25T09:11:34.077Z,11.30
2017-11-25T09:14:02.335Z,11.30
2017-11-25T09:16:29.828Z,11.30
2017-11-25T09:18:57.326Z,11.40
2017-11-25T09:21:24.818Z,11.40
2017-11-25T09:23:52.327Z,11.30
2017-11-25T09:26:19.810Z,11.20
2017-11-25T09:28:47.294Z,11.30
2017-11-25T09:31:14.790Z,11.40
2017-11-25T09:33:42.331Z,11.40
2017-11-25T09:36:10.590Z,11.20
2017-11-25T09:38:38.074Z,11.20
2017-11-25T09:41:06.326Z,11.30
2017-11-25T09:43:33.816Z,11.20
2017-11-25T09:46:01.322Z,11.40
2017-11-25T09:48:28.822Z,11.40
2017-11-25T09:50:57.082Z,11.40
2017-11-25T09:53:24.571Z,11.40
2017-11-25T09:55:52.058Z,11.40
2017-11-25T09:58:19.545Z,11.50
2017-11-25T10:00:47.025Z,11.50
2017-11-25T10:03:15.284Z,11.50
2017-11-25T10:05:42.795Z,11.50
2017-11-25T10:08:10.278Z,11.50
2017-11-25T10:10:37.769Z,11.40
2017-11-25T10:13:06.061Z,11.60
2017-11-25T10:15:34.319Z,11.70
2017-11-25T10:18:01.803Z,11.70
2017-11-25T10:20:30.062Z,11.70
2017-11-25T10:22:57.561Z,11.60
2017-11-25T10:25:25.052Z,11.50
2017-11-25T10:27:52.566Z,11.60
2017-11-25T10:30:20.969Z,11.80
2017-11-25T10:32:48.450Z,11.70
2017-11-25T10:35:15.942Z,11.70
2017-11-25T10:37:43.436Z,11.70
2017-11-25T10:40:10.947Z,11.70
2017-11-25T10:42:38.438Z,11.80
2017-11-25T10:45:06.690Z,13.20
2017-11-25T10:47:35.022Z,13.70
2017-11-25T10:50:02.506Z,13.60
2017-11-25T10:52:29.998Z,13.00
2017-11-25T10:54:58.253Z,14.50
2017-11-25T10:57:25.757Z,14.50
2017-11-25T10:59:53.254Z,14.30
2017-11-25T11:02:20.770Z,13.80
2017-11-25T11:04:48.263Z,13.30
2017-11-25T11:07:15.754Z,13.50
2017-11-25T11:09:43.242Z,13.90
2017-11-25T11:12:11.494Z,14.00
2017-11-25T11:14:38.983Z,14.00
2017-11-25T11:17:07.243Z,13.70
2017-11-25T11:19:35.500Z,13.40
2017-11-25T11:22:02.982Z,13.40
2017-11-25T11:24:31.230Z,13.70
2017-11-25T11:26:58.720Z,13.60
2017-11-25T11:29:26.974Z,14.20
2017-11-25T11:31:54.461Z,14.10
2017-11-25T11:34:22.715Z,15.80
2017-11-25T11:36:50.201Z,15.70
2017-11-25T11:39:18.458Z,15.40
2017-11-25T11:41:46.462Z,15.40
2017-11-25T11:44:13.953Z,14.30
2017-11-25T11:46:41.439Z,13.60
2017-11-25T11:49:10.445Z,13.70
2017-11-25T11:51:38.694Z,13.40
2017-11-25T11:54:06.174Z,13.30
2017-11-25T11:56:33.667Z,13.80
2017-11-25T11:59:01.155Z,14.60
2017-11-25T12:01:29.928Z,14.30
2017-11-25T12:03:57.453Z,14.60
2017-11-25T12:06:25.724Z,15.20
2017-11-25T12:08:53.980Z,15.40
2017-11-25T12:11:23.834Z,15.30
2017-11-25T12:13:52.089Z,15.50
2017-11-25T12:16:20.039Z,15.40
2017-11-25T12:18:47.521Z,16.60
2017-11-25T12:21:16.559Z,15.20
2017-11-25T12:23:44.469Z,15.10
2017-11-25T12:26:12.841Z,14.40
2017-11-25T12:28:42.642Z,14.70
2017-11-25T12:31:13.227Z,15.30
2017-11-25T12:33:42.054Z,16.00
2017-11-25T12:36:10.524Z,16.00
2017-11-25T12:38:38.634Z,15.40
2017-11-25T12:41:06.134Z,15.10
2017-11-25T12:43:34.998Z,15.40
2017-11-25T12:46:02.876Z,15.40
2017-11-25T12:48:31.541Z,16.00
2017-11-25T12:50:59.759Z,15.90
2017-11-25T12:53:29.014Z,16.30
2017-11-25T12:55:57.357Z,16.20
2017-11-25T12:58:25.239Z,17.40
2017-11-25T13:00:53.496Z,16.60
2017-11-25T13:03:21.614Z,16.00
2017-11-25T13:05:49.443Z,15.40
2017-11-25T13:08:18.536Z,16.60
2017-11-25T13:10:46.333Z,16.50
2017-11-25T13:13:13.820Z,17.40
2017-11-25T13:15:41.302Z,17.70
2017-11-25T13:18:09.547Z,17.90
2017-11-25T13:20:37.034Z,17.80
2017-11-25T13:23:05.539Z,16.40
2017-11-25T13:25:33.086Z,16.40
2017-11-25T13:28:00.579Z,16.30
2017-11-25T13:30:28.091Z,16.40
2017-11-25T13:32:56.647Z,16.10
2017-11-25T13:35:24.131Z,16.00
2017-11-25T13:37:52.386Z,16.10
2017-11-25T13:40:19.959Z,16.00
2017-11-25T13:42:47.458Z,15.40
2017-11-25T13:45:14.995Z,15.40
2017-11-25T13:47:43.721Z,15.80
2017-11-25T13:50:11.385Z,15.70
2017-11-25T13:52:39.755Z,15.20
2017-11-25T13:55:10.100Z,14.90
2017-11-25T13:57:37.955Z,14.50
2017-11-25T14:00:06.634Z,14.50
2017-11-25T14:02:35.698Z,14.30
2017-11-25T14:05:04.074Z,14.20
2017-11-25T14:07:33.501Z,14.20
2017-11-25T14:10:01.691Z,14.10
2017-11-25T14:12:30.319Z,14.00
2017-11-25T14:14:58.194Z,13.80
2017-11-25T14:17:27.855Z,13.60
2017-11-25T14:19:58.563Z,13.60
2017-11-25T14:22:26.988Z,13.70
2017-11-25T14:24:54.757Z,13.60
2017-11-25T14:30:05.735Z,13.60
2017-11-25T14:32:34.563Z,13.30
2017-11-25T14:35:02.509Z,13.40
2017-11-25T14:37:30.096Z,13.40
2017-11-25T14:39:57.912Z,13.30
2017-11-25T14:42:26.021Z,13.20
2017-11-25T14:44:53.779Z,13.20
2017-11-25T14:47:23.565Z,13.30
2017-11-25T14:49:52.323Z,13.30
2017-11-25T14:52:20.905Z,13.20
2017-11-25T14:54:49.656Z,13.30
2017-11-25T14:57:17.346Z,13.20
2017-11-25T14:59:45.742Z,13.20
2017-11-25T15:02:13.388Z,13.00
2017-11-25T15:04:41.174Z,12.90
2017-11-25T15:07:11.074Z,12.80
2017-11-25T15:09:39.635Z,12.80
2017-11-25T15:12:07.579Z,12.80
2017-11-25T15:14:35.437Z,13.50
2017-11-25T15:17:03.561Z,13.10
2017-11-25T15:19:32.933Z,12.90
2017-11-25T15:22:01.449Z,12.90
2017-11-25T15:24:29.306Z,12.90
2017-11-25T15:26:57.232Z,13.00
2017-11-25T15:29:26.450Z,13.00
2017-11-25T15:31:55.618Z,12.80
2017-11-25T15:34:24.140Z,12.70
2017-11-25T15:36:52.174Z,12.80
2017-11-25T15:39:20.647Z,12.60
2017-11-25T15:41:49.372Z,12.60
2017-11-25T15:44:17.033Z,12.70
2017-11-25T15:46:46.856Z,12.70
2017-11-25T15:49:15.744Z,12.30
2017-11-25T15:51:44.152Z,12.30
2017-11-25T15:54:15.519Z,12.30
2017-11-25T15:56:44.088Z,12.30
2017-11-25T15:59:11.825Z,12.30
2017-11-25T16:01:39.844Z,12.50
2017-11-25T16:04:09.310Z,12.50
2017-11-25T16:06:38.422Z,12.40
2017-11-25T16:09:06.448Z,12.40
2017-11-25T16:11:34.660Z,12.70
2017-11-25T16:14:02.491Z,13.00
2017-11-25T16:16:30.941Z,12.70
2017-11-25T16:18:59.901Z,12.70
2017-11-25T16:21:33.015Z,12.70
2017-11-25T16:24:01.496Z,12.40
2017-11-25T16:26:30.938Z,12.40
2017-11-25T16:28:59.609Z,12.30
2017-11-25T16:31:28.220Z,12.50
2017-11-25T16:33:56.904Z,12.50
2017-11-25T16:36:26.826Z,12.60
2017-11-25T16:38:55.930Z,12.50
2017-11-25T16:41:23.606Z,13.00
2017-11-25T16:43:51.314Z,12.70
2017-11-25T16:46:19.753Z,12.70
2017-11-25T16:48:47.458Z,12.70
2017-11-25T16:51:16.448Z,12.70
2017-11-25T16:53:45.079Z,12.50
2017-11-25T16:56:12.565Z,12.40
2017-11-25T16:58:40.250Z,12.50
2017-11-25T17:01:08.979Z,12.70
2017-11-25T17:03:36.562Z,12.60
2017-11-25T17:06:04.042Z,12.70
2017-11-25T17:08:36.703Z,12.60
2017-11-25T17:11:04.974Z,12.60
2017-11-25T17:13:33.642Z,12.70
2017-11-25T17:16:01.223Z,12.70
2017-11-25T17:18:29.891Z,12.80
2017-11-25T17:20:57.458Z,12.80
2017-11-25T17:23:24.986Z,12.50
2017-11-25T17:25:53.234Z,12.70
2017-11-25T17:28:20.718Z,12.70
2017-11-25T17:30:48.969Z,12.60
2017-11-25T17:33:16.762Z,12.60
2017-11-25T17:35:45.010Z,12.50
2017-11-25T17:38:13.262Z,12.40
2017-11-25T17:40:40.965Z,12.60
2017-11-25T17:43:09.271Z,12.90
2017-11-25T17:45:37.746Z,12.90
2017-11-25T17:48:05.413Z,13.10
2017-11-25T17:50:32.965Z,12.90
2017-11-25T17:53:00.494Z,12.70
2017-11-25T17:55:28.065Z,12.40
2017-11-25T17:57:55.776Z,12.40
2017-11-25T18:00:23.263Z,12.30
2017-11-25T18:02:50.935Z,12.50
2017-11-25T18:05:18.427Z,12.60
2017-11-25T18:07:46.759Z,12.30
2017-11-25T18:10:14.249Z,12.20
2017-11-25T18:12:41.766Z,12.50
2017-11-25T18:15:09.285Z,12.30
2017-11-25T18:17:37.610Z,12.10
2017-11-25T18:20:05.098Z,12.10
2017-11-25T18:22:32.582Z,12.00
2017-11-25T18:25:00.840Z,12.50
2017-11-25T18:27:28.400Z,12.40
2017-11-25T18:29:56.009Z,12.40
2017-11-25T18:32:23.526Z,12.20
2017-11-25T18:34:51.790Z,12.10
2017-11-25T18:37:19.408Z,12.10
2017-11-25T18:39:46.971Z,12.20
2017-11-25T18:42:14.490Z,12.10
2017-11-25T18:44:42.808Z,12.30
2017-11-25T18:47:10.360Z,12.30
2017-11-25T18:49:37.844Z,12.10
2017-11-25T18:52:05.330Z,12.00
2017-11-25T18:54:32.867Z,12.20
2017-11-25T18:57:00.353Z,12.20
2017-11-25T18:59:27.835Z,12.40
2017-11-25T19:01:56.086Z,12.10
2017-11-25T19:04:23.570Z,12.10
2017-11-25T19:06:51.822Z,11.80
2017-11-25T19:09:19.305Z,11.80
2017-11-25T19:11:47.553Z,11.80
2017-11-25T19:14:15.809Z,11.60
2017-11-25T19:16:43.449Z,11.50
2017-11-25T19:19:10.942Z,11.60
2017-11-25T19:21:38.493Z,11.60
2017-11-25T19:24:05.981Z,11.60
2017-11-25T19:26:33.466Z,11.50
2017-11-25T19:29:01.712Z,11.50
2017-11-25T19:31:29.203Z,11.50
2017-11-25T19:33:57.459Z,11.50
2017-11-25T19:36:25.723Z,11.50
2017-11-25T19:38:53.222Z,11.50
2017-11-25T19:41:20.714Z,11.70
2017-11-25T19:43:48.260Z,11.60
2017-11-25T19:46:15.762Z,11.50
2017-11-25T19:48:43.256Z,11.50
2017-11-25T19:51:10.960Z,11.60
2017-11-25T19:53:38.515Z,11.50
2017-11-25T19:56:06.059Z,11.30
2017-11-25T19:58:33.560Z,11.50
2017-11-25T20:01:01.129Z,11.40
2017-11-25T20:03:28.640Z,11.40
2017-11-25T20:05:56.132Z,11.50
2017-11-25T20:08:23.639Z,11.40
2017-11-25T20:10:51.908Z,11.40
2017-11-25T20:13:20.158Z,11.40
2017-11-25T20:15:47.633Z,11.30
2017-11-25T20:18:15.889Z,11.50
2017-11-25T20:20:43.383Z,11.50
2017-11-25T20:23:11.692Z,11.50
2017-11-25T20:25:39.218Z,11.50
2017-11-25T20:28:07.475Z,11.40
2017-11-25T20:30:35.084Z,11.40
2017-11-25T20:33:02.571Z,11.50
2017-11-25T20:35:30.062Z,11.50
2017-11-25T20:37:58.309Z,11.40
2017-11-25T20:40:25.796Z,11.30
2017-11-25T20:42:54.050Z,11.20
2017-11-25T20:45:21.554Z,11.20
2017-11-25T20:47:49.051Z,11.20
2017-11-25T20:50:16.546Z,11.20
2017-11-25T20:52:44.076Z,11.20
2017-11-25T20:55:11.622Z,11.20
2017-11-25T20:57:39.139Z,11.20
2017-11-25T21:00:06.666Z,11.30
2017-11-25T21:02:34.236Z,11.30
2017-11-25T21:05:01.726Z,11.30
2017-11-25T21:07:29.974Z,11.20
2017-11-25T21:09:57.460Z,11.20
2017-11-25T21:12:25.731Z,11.20
2017-11-25T21:14:53.331Z,11.20
2017-11-25T21:17:20.837Z,11.20
2017-11-25T21:19:48.318Z,11.20
2017-11-25T21:22:15.820Z,11.20
2017-11-25T21:24:43.438Z,11.30
2017-11-25T21:27:11.715Z,11.20
2017-11-25T21:29:40.083Z,11.20
2017-11-25T21:32:08.357Z,11.30
2017-11-25T21:34:36.636Z,11.50
2017-11-25T21:37:05.033Z,11.50
2017-11-25T21:39:33.343Z,11.30
2017-11-25T21:42:00.839Z,11.30
2017-11-25T21:44:28.323Z,11.60
2017-11-25T21:46:55.847Z,11.70
2017-11-25T21:49:23.342Z,11.60
2017-11-25T21:51:51.621Z,11.60
2017-11-25T21:54:19.885Z,11.60
2017-11-25T21:56:47.422Z,11.50
2017-11-25T21:59:14.929Z,11.60
2017-11-25T22:01:42.417Z,11.60
2017-11-25T22:04:09.907Z,11.50
2017-11-25T22:06:37.413Z,11.40
2017-11-25T22:09:04.913Z,11.40
2017-11-25T22:11:32.409Z,11.30
2017-11-25T22:14:00.679Z,11.30
2017-11-25T22:16:28.933Z,11.60
2017-11-25T22:18:57.223Z,11.50
2017-11-25T22:21:24.723Z,11.50
2017-11-25T22:23:52.293Z,11.40
2017-11-25T22:26:20.004Z,11.40
2017-11-25T22:28:47.578Z,11.90
2017-11-25T22:31:15.835Z,11.60
2017-11-25T22:33:43.412Z,11.60
2017-11-25T22:36:10.999Z,11.70
2017-11-25T22:38:38.518Z,11.60
2017-11-25T22:41:32.374Z,11.40
2017-11-25T22:43:59.977Z,11.50
2017-11-25T22:46:28.277Z,11.40
2017-11-25T22:48:55.766Z,11.30
2017-11-25T22:51:23.254Z,11.50
2017-11-25T22:53:50.730Z,11.30
2017-11-25T22:56:24.592Z,11.50
2017-11-25T22:58:53.983Z,11.40
2017-11-25T23:01:26.969Z,11.40
2017-11-25T23:04:00.324Z,11.80
2017-11-25T23:06:29.810Z,11.70
2017-11-25T23:08:57.435Z,11.70
2017-11-25T23:11:25.171Z,11.80
2017-11-25T23:13:53.855Z,11.80
2017-11-25T23:16:22.198Z,11.70
2017-11-25T23:18:50.000Z,11.70
2017-11-25T23:21:18.616Z,12.00
2017-11-25T23:23:46.233Z,11.90
2017-11-25T23:26:14.047Z,11.70
2017-11-25T23:28:48.292Z,11.70
2017-11-25T23:31:17.215Z,11.50
2017-11-25T23:33:45.515Z,11.50
2017-11-25T23:36:13.201Z,11.40
2017-11-25T23:38:40.963Z,11.60
2017-11-25T23:41:08.832Z,11.50
2017-11-25T23:43:36.635Z,11.50
2017-11-25T23:46:04.568Z,11.50
2017-11-25T23:48:32.141Z,11.30
2017-11-25T23:50:59.629Z,11.30
2017-11-25T23:53:27.111Z,11.30
2017-11-25T23:55:55.358Z,11.40
2017-11-25T23:58:22.868Z,11.30
